Grande Abidjan — IBDE — position and weather

sailwx.info

Track history (hours):
 
Tides and Currents Weather Stations Pressure Air Temp Water Temp Dewpoint Dewpoint Depression Visibility Wind Speed Wind Dir Waves Ship Positions

Grande Abidjan

Last reported at 2018-Jun-24 18:30 UTC. Time now 2018-Jun-24 18:55 UTC.
Position N 50°03' W 001°36'.

Length 236 m; draft 8.4 m.

Type: Cargo ship. MMSI: 247341700.

Date/timePositionNaut miles runAvg speedWind from/ knotsBaromVisibWave heightAir tempDewpointWater temp
2018-Jun-24 18:30N 50°03' W 001°36'816.5
2018-Jun-24 18:00N 50°01' W 001°48'1116.9
2018-Jun-24 17:23N 49°58' W 002°04'616.7
2018-Jun-24 17:00N 49°57' W 002°14'816.2
2018-Jun-24 16:30N 49°55' W 002°26'815.7
2018-Jun-24 16:00N 49°53' W 002°37'815.3
2018-Jun-24 15:31N 49°50' W 002°49'714.9
2018-Jun-24 15:00N 49°48' W 002°60'714.8
2018-Jun-24 14:30N 49°44' W 003°10'714.8
2018-Jun-24 14:01N 49°41' W 003°19'814.8
2018-Jun-24 13:28N 49°37' W 003°30'714.5
2018-Jun-24 12:59N 49°33' W 003°40'714.6
2018-Jun-24 12:30N 49°29' W 003°49'714.5
2018-Jun-24 12:00N 49°26' W 003°58'814.3
2018-Jun-24 11:29N 49°22' W 004°08'714.1
2018-Jun-24 10:59N 49°19' W 004°18'714.0
2018-Jun-24 10:29N 49°15' W 004°27'713.8
2018-Jun-24 09:57N 49°11' W 004°37'614.1
2018-Jun-24 09:30N 49°08' W 004°45'1414.0
2018-Jun-24 08:31N 49°01' W 005°03'113.2
2018-Jun-24 08:28N 49°01' W 005°04'613.3
2018-Jun-24 08:00N 48°58' W 005°12'713.2
2018-Jun-24 07:30N 48°55' W 005°21'612.9
2018-Jun-24 07:00N 48°51' W 005°29'613.0
2018-Jun-24 06:30N 48°47' W 005°37'612.9
2018-Jun-24 06:00N 48°42' W 005°42'713.3
2018-Jun-24 05:30N 48°36' W 005°46'713.2
2018-Jun-24 05:00N 48°29' W 005°50'713.3
2018-Jun-24 04:30N 48°23' W 005°54'713.3
2018-Jun-24 04:00N 48°18' W 005°59'1213.7
2018-Jun-24 03:06N 48°07' W 006°08'213.8
2018-Jun-24 02:58N 48°05' W 006°09'713.8
2018-Jun-24 02:29N 47°59' W 006°14'813.9
2018-Jun-24 01:53N 47°52' W 006°20'713.8
2018-Jun-24 01:22N 47°46' W 006°24'1114.4
2018-Jun-24 00:38N 47°36' W 006°31'2813.8
2018-Jun-23 22:37N 47°11' W 006°51'113.4
2018-Jun-23 22:31N 47°10' W 006°51'713.4
2018-Jun-23 21:59N 47°04' W 006°56'613.6
2018-Jun-23 21:31N 46°58' W 007°00'52313.3
2018-Jun-22 06:05N 38°42' W 010°48'413.2
2018-Jun-22 05:47N 38°38' W 010°49'413.3
2018-Jun-22 05:30N 38°35' W 010°50'1513.4
2018-Jun-22 04:22N 38°20' W 010°53'713.6
2018-Jun-22 03:50N 38°13' W 010°55'613.8
2018-Jun-22 03:24N 38°07' W 010°57'613.8
2018-Jun-22 03:00N 38°01' W 010°58'713.9
2018-Jun-22 02:30N 37°55' W 010°60'713.6
2018-Jun-22 02:00N 37°48' W 011°02'713.7
2018-Jun-22 01:29N 37°41' W 011°03'713.7
2018-Jun-22 01:00N 37°34' W 011°05'713.7
2018-Jun-22 00:30N 37°28' W 011°07'1413.5
2018-Jun-21 23:26N 37°14' W 011°10'613.5
2018-Jun-21 23:00N 37°08' W 011°11'813.5
2018-Jun-21 22:27N 37°00' W 011°13'44413.5
2018-Jun-20 13:39N 29°46' W 012°57'614.2
2018-Jun-20 13:15N 29°40' W 012°59'314.1
2018-Jun-20 13:00N 29°37' W 012°59'1314.0
2018-Jun-20 12:04N 29°24' W 013°02'413.6
2018-Jun-20 11:46N 29°20' W 013°03'1113.4
2018-Jun-20 10:57N 29°10' W 013°08'613.6
2018-Jun-20 10:29N 29°04' W 013°11'613.4
2018-Jun-20 10:00N 28°58' W 013°15'713.5
2018-Jun-20 09:30N 28°53' W 013°18'713.4
2018-Jun-20 08:58N 28°46' W 013°22'613.6
2018-Jun-20 08:30N 28°41' W 013°26'713.4
2018-Jun-20 07:59N 28°34' W 013°29'713.4
2018-Jun-20 07:30N 28°29' W 013°33'713.8
2018-Jun-20 07:00N 28°23' W 013°37'713.8
2018-Jun-20 06:28N 28°16' W 013°41'713.8
2018-Jun-20 05:55N 28°10' W 013°45'613.6
2018-Jun-20 05:30N 28°05' W 013°48'713.5
2018-Jun-20 05:00N 27°59' W 013°52'713.7
2018-Jun-20 04:30N 27°53' W 013°56'713.6
2018-Jun-20 04:00N 27°48' W 014°01'713.5
2018-Jun-20 03:30N 27°43' W 014°06'713.5
2018-Jun-20 03:00N 27°37' W 014°11'713.3
2018-Jun-20 02:28N 27°32' W 014°16'813.4
2018-Jun-20 01:51N 27°25' W 014°21'613.3
2018-Jun-20 01:25N 27°21' W 014°25'713.2
2018-Jun-20 00:53N 27°15' W 014°30'  
Track history (hours):
 
Tides and Currents Weather Stations Pressure Air Temp Water Temp Dewpoint Dewpoint Depression Visibility Wind Speed Wind Dir Waves Ship Positions

Grande Abidjan

Last reported at 2018-Jun-24 18:30 UTC. Time now 2018-Jun-24 18:55 UTC.
Position N 50°03' W 001°36'.

Length 236 m; draft 8.4 m.

Type: Cargo ship. MMSI: 247341700.

Date/timePositionNaut miles runAvg speedWind from/ knotsBaromVisibWave heightAir tempDewpointWater temp
2018-Jun-24 18:30N 50°03' W 001°36'816.5
2018-Jun-24 18:00N 50°01' W 001°48'1116.9
2018-Jun-24 17:23N 49°58' W 002°04'616.7
2018-Jun-24 17:00N 49°57' W 002°14'816.2
2018-Jun-24 16:30N 49°55' W 002°26'815.7
2018-Jun-24 16:00N 49°53' W 002°37'815.3
2018-Jun-24 15:31N 49°50' W 002°49'714.9
2018-Jun-24 15:00N 49°48' W 002°60'714.8
2018-Jun-24 14:30N 49°44' W 003°10'714.8
2018-Jun-24 14:01N 49°41' W 003°19'814.8
2018-Jun-24 13:28N 49°37' W 003°30'714.5
2018-Jun-24 12:59N 49°33' W 003°40'714.6
2018-Jun-24 12:30N 49°29' W 003°49'714.5
2018-Jun-24 12:00N 49°26' W 003°58'814.3
2018-Jun-24 11:29N 49°22' W 004°08'714.1
2018-Jun-24 10:59N 49°19' W 004°18'714.0
2018-Jun-24 10:29N 49°15' W 004°27'713.8
2018-Jun-24 09:57N 49°11' W 004°37'614.1
2018-Jun-24 09:30N 49°08' W 004°45'1414.0
2018-Jun-24 08:31N 49°01' W 005°03'113.2
2018-Jun-24 08:28N 49°01' W 005°04'613.3
2018-Jun-24 08:00N 48°58' W 005°12'713.2
2018-Jun-24 07:30N 48°55' W 005°21'612.9
2018-Jun-24 07:00N 48°51' W 005°29'613.0
2018-Jun-24 06:30N 48°47' W 005°37'612.9
2018-Jun-24 06:00N 48°42' W 005°42'713.3
2018-Jun-24 05:30N 48°36' W 005°46'713.2
2018-Jun-24 05:00N 48°29' W 005°50'713.3
2018-Jun-24 04:30N 48°23' W 005°54'713.3
2018-Jun-24 04:00N 48°18' W 005°59'1213.7
2018-Jun-24 03:06N 48°07' W 006°08'213.8
2018-Jun-24 02:58N 48°05' W 006°09'713.8
2018-Jun-24 02:29N 47°59' W 006°14'813.9
2018-Jun-24 01:53N 47°52' W 006°20'713.8
2018-Jun-24 01:22N 47°46' W 006°24'1114.4
2018-Jun-24 00:38N 47°36' W 006°31'2813.8
2018-Jun-23 22:37N 47°11' W 006°51'113.4
2018-Jun-23 22:31N 47°10' W 006°51'713.4
2018-Jun-23 21:59N 47°04' W 006°56'613.6
2018-Jun-23 21:31N 46°58' W 007°00'52313.3
2018-Jun-22 06:05N 38°42' W 010°48'413.2
2018-Jun-22 05:47N 38°38' W 010°49'413.3
2018-Jun-22 05:30N 38°35' W 010°50'1513.4
2018-Jun-22 04:22N 38°20' W 010°53'713.6
2018-Jun-22 03:50N 38°13' W 010°55'613.8
2018-Jun-22 03:24N 38°07' W 010°57'613.8
2018-Jun-22 03:00N 38°01' W 010°58'713.9
2018-Jun-22 02:30N 37°55' W 010°60'713.6
2018-Jun-22 02:00N 37°48' W 011°02'713.7
2018-Jun-22 01:29N 37°41' W 011°03'713.7
2018-Jun-22 01:00N 37°34' W 011°05'713.7
2018-Jun-22 00:30N 37°28' W 011°07'1413.5
2018-Jun-21 23:26N 37°14' W 011°10'613.5
2018-Jun-21 23:00N 37°08' W 011°11'813.5
2018-Jun-21 22:27N 37°00' W 011°13'44413.5
2018-Jun-20 13:39N 29°46' W 012°57'614.2
2018-Jun-20 13:15N 29°40' W 012°59'314.1
2018-Jun-20 13:00N 29°37' W 012°59'1314.0
2018-Jun-20 12:04N 29°24' W 013°02'413.6
2018-Jun-20 11:46N 29°20' W 013°03'1113.4
2018-Jun-20 10:57N 29°10' W 013°08'613.6
2018-Jun-20 10:29N 29°04' W 013°11'613.4
2018-Jun-20 10:00N 28°58' W 013°15'713.5
2018-Jun-20 09:30N 28°53' W 013°18'713.4
2018-Jun-20 08:58N 28°46' W 013°22'613.6
2018-Jun-20 08:30N 28°41' W 013°26'713.4
2018-Jun-20 07:59N 28°34' W 013°29'713.4
2018-Jun-20 07:30N 28°29' W 013°33'713.8
2018-Jun-20 07:00N 28°23' W 013°37'713.8
2018-Jun-20 06:28N 28°16' W 013°41'713.8
2018-Jun-20 05:55N 28°10' W 013°45'613.6
2018-Jun-20 05:30N 28°05' W 013°48'713.5
2018-Jun-20 05:00N 27°59' W 013°52'713.7
2018-Jun-20 04:30N 27°53' W 013°56'713.6
2018-Jun-20 04:00N 27°48' W 014°01'713.5
2018-Jun-20 03:30N 27°43' W 014°06'713.5
2018-Jun-20 03:00N 27°37' W 014°11'713.3
2018-Jun-20 02:28N 27°32' W 014°16'813.4
2018-Jun-20 01:51N 27°25' W 014°21'613.3
2018-Jun-20 01:25N 27°21' W 014°25'713.2
2018-Jun-20 00:53N 27°15' W 014°30'  

Dump ship's entire track history